Time;durP1;ratioP1;P1;durP2;ratioP2;P2;SDS_P1;SDS_P2;PMS_P1;PMS_P2;Temp;Humidity;BMP_temperature;BMP_pressure;BME280_temperature;BME280_humidity;BME280_pressure;Samples;Min_cycle;Max_cycle;Signal;HPM_P1;HPM_P2
2022/08/11 00:01:06;;;;;;;9.90;2.00;;;;;;;19.19;36.98;101835.50;5031409;28;20385;-68
2022/08/11 00:03:34;;;;;;;8.40;2.53;;;;;;;19.34;36.51;101833.56;5032847;28;20172;-68
2022/08/11 00:06:12;;;;;;;6.25;1.88;;;;;;;19.13;36.98;101834.38;5033691;28;20057;-68
2022/08/11 00:08:41;;;;;;;12.77;2.53;;;;;;;19.12;36.75;101838.13;5025965;28;20052;-69
2022/08/11 00:11:11;;;;;;;12.20;1.90;;;;;;;19.14;36.75;101833.34;5045107;28;20045;-69
2022/08/11 00:13:44;;;;;;;6.60;1.80;;;;;;;19.02;36.81;101832.97;5031202;28;20041;-68
2022/08/11 00:16:30;;;;;;;6.43;1.70;;;;;;;19.15;36.72;101834.19;5031558;28;20101;-68
2022/08/11 00:18:59;;;;;;;6.18;1.75;;;;;;;19.14;36.93;101833.34;5030707;28;20041;-68
2022/08/11 00:21:27;;;;;;;4.88;1.70;;;;;;;19.11;36.74;101841.06;5031328;28;20116;-69
2022/08/11 00:24:15;;;;;;;9.02;1.77;;;;;;;18.96;37.11;101841.88;5031004;28;20057;-68
2022/08/11 00:26:53;;;;;;;7.05;1.73;;;;;;;19.06;37.04;101843.47;5030856;28;20049;-68
2022/08/11 00:29:20;;;;;;;6.18;2.13;;;;;;;19.03;37.12;101847.41;5026636;28;20073;-69
2022/08/11 00:31:52;;;;;;;6.30;1.90;;;;;;;18.94;37.31;101843.97;5031025;28;20124;-68
2022/08/11 00:34:25;;;;;;;5.47;1.88;;;;;;;18.95;37.08;101842.09;5031887;28;20069;-68
2022/08/11 00:36:56;;;;;;;9.07;2.05;;;;;;;18.88;37.50;101838.41;5030920;28;20456;-68
2022/08/11 00:39:25;;;;;;;6.10;1.80;;;;;;;18.83;37.52;101833.53;5031849;28;20076;-68
2022/08/11 00:42:22;;;;;;;8.60;1.65;;;;;;;18.79;37.50;101833.06;5035033;28;20592;-68
2022/08/11 00:45:09;;;;;;;8.02;1.95;;;;;;;18.83;37.50;101828.09;5034152;28;20485;-69
2022/08/11 00:47:51;;;;;;;11.02;2.03;;;;;;;18.73;37.55;101835.69;5033809;28;20140;-69
2022/08/11 00:50:35;;;;;;;9.40;1.80;;;;;;;18.65;37.93;101831.16;5033641;28;20054;-69
2022/08/11 00:53:16;;;;;;;;;;;;;;;18.69;37.86;101828.97;5034837;28;20072;-69
2022/08/11 00:56:41;;;;;;;3.78;1.92;;;;;;;18.71;37.65;101840.47;5034230;28;19971;-69
2022/08/11 00:59:21;;;;;;;4.45;2.20;;;;;;;18.71;37.88;101844.03;5034532;28;20135;-69
2022/08/11 01:02:40;;;;;;;6.65;1.98;;;;;;;18.69;38.04;101837.09;5033467;28;20050;-69
2022/08/11 01:09:24;;;;;;;5.78;1.90;;;;;;;18.49;38.35;101832.22;5034410;28;20091;-69
2022/08/11 01:12:18;;;;;;;7.93;2.03;;;;;;;18.47;38.67;101838.84;5016414;28;20049;-69
2022/08/11 01:15:20;;;;;;;6.25;2.13;;;;;;;18.37;38.52;101841.00;5033368;28;20458;-69
2022/08/11 01:18:25;;;;;;;6.45;1.65;;;;;;;18.44;38.56;101845.50;5033716;28;20099;-69
2022/08/11 01:21:15;;;;;;;9.57;2.00;;;;;;;18.55;38.23;101841.50;5033746;28;20048;-69
2022/08/11 01:23:58;;;;;;;8.30;2.30;;;;;;;18.46;38.29;101845.31;5034217;28;20136;-67
2022/08/11 01:26:43;;;;;;;10.40;2.15;;;;;;;18.43;38.85;101837.53;5033623;28;20124;-68
2022/08/11 01:29:28;;;;;;;4.63;2.28;;;;;;;18.46;38.66;101840.72;5033827;28;20450;-68
2022/08/11 01:32:28;;;;;;;5.80;1.73;;;;;;;18.22;39.29;101832.81;5033067;28;20132;-68
2022/08/11 01:35:15;;;;;;;9.63;1.98;;;;;;;18.22;39.44;101846.41;5013099;28;20083;-68
2022/08/11 01:38:13;;;;;;;6.28;1.90;;;;;;;18.22;39.56;101854.53;5033303;28;20073;-68
2022/08/11 01:40:57;;;;;;;7.35;2.30;;;;;;;18.23;39.70;101842.66;5033071;28;20521;-69
2022/08/11 01:46:42;;;;;;;9.40;2.30;;;;;;;18.34;39.37;101847.63;5032988;28;20080;-68
2022/08/11 01:49:28;;;;;;;10.55;2.10;;;;;;;18.23;39.52;101839.94;5033588;28;20446;-68
2022/08/11 01:52:41;;;;;;;9.32;2.00;;;;;;;18.22;39.59;101840.97;5032429;28;20053;-69
2022/08/11 01:55:22;;;;;;;6.45;2.00;;;;;;;18.06;39.79;101837.34;5031070;28;20524;-68
2022/08/11 01:57:55;;;;;;;7.70;2.40;;;;;;;18.18;39.59;101835.06;5033760;28;20050;-68
2022/08/11 02:00:29;;;;;;;13.63;2.63;;;;;;;17.89;40.26;101833.06;5032960;28;20072;-69
2022/08/11 02:03:20;;;;;;;6.97;2.08;;;;;;;17.96;40.17;101836.75;5032140;28;20049;-69
2022/08/11 02:05:59;;;;;;;11.65;1.90;;;;;;;17.98;40.40;101829.25;5033293;28;20120;-68
2022/08/11 02:09:19;;;;;;;9.65;1.98;;;;;;;17.91;40.78;101830.16;5032759;28;20045;-68
2022/08/11 02:11:49;;;;;;;6.03;2.10;;;;;;;17.95;40.59;101824.19;4995982;28;20227;-68
2022/08/11 02:14:33;;;;;;;5.25;2.38;;;;;;;17.82;40.61;101826.66;5032985;28;20132;-68
2022/08/11 02:17:19;;;;;;;10.15;2.40;;;;;;;17.90;40.81;101832.03;5031920;28;20045;-68
2022/08/11 02:23:44;;;;;;;3.63;1.90;;;;;;;17.81;41.20;101827.69;5011313;28;20124;-68
2022/08/11 02:26:54;;;;;;;9.80;2.42;;;;;;;17.80;40.92;101828.72;5009908;28;20081;-69
2022/08/11 02:29:32;;;;;;;6.18;2.50;;;;;;;17.69;41.30;101829.16;5011243;28;20057;-68
2022/08/11 02:35:10;;;;;;;9.63;2.70;;;;;;;17.63;41.44;101830.72;5009482;28;20100;-68
2022/08/11 02:38:10;;;;;;;5.75;2.28;;;;;;;17.70;41.13;101825.41;5009489;28;20088;-68
2022/08/11 02:40:58;;;;;;;5.32;2.30;;;;;;;17.57;41.63;101818.69;5007729;28;20037;-68
2022/08/11 02:43:40;;;;;;;8.18;2.42;;;;;;;17.58;41.35;101823.13;5008559;28;20046;-68
2022/08/11 02:46:22;;;;;;;7.15;2.08;;;;;;;;;;5009936;28;20042;-69
2022/08/11 02:52:07;;;;;;;8.27;2.30;;;;;;;17.46;41.53;101816.41;5009939;28;20076;-69
2022/08/11 02:54:39;;;;;;;6.38;2.25;;;;;;;17.44;42.05;101823.03;5024992;28;20072;-69
2022/08/11 02:57:16;;;;;;;5.40;2.70;;;;;;;17.36;42.28;101821.22;5031731;28;20079;-69
2022/08/11 03:00:09;;;;;;;8.27;2.67;;;;;;;17.40;42.13;101819.81;5032306;28;20128;-68
2022/08/11 03:02:57;;;;;;;12.90;3.03;;;;;;;17.34;42.17;101825.97;5031633;28;20041;-69
2022/08/11 03:05:37;;;;;;;11.93;2.50;;;;;;;17.27;42.46;101814.13;5031621;28;20047;-69
2022/08/11 03:08:50;;;;;;;7.00;2.35;;;;;;;17.25;42.48;101818.88;5032232;28;20457;-69
2022/08/11 03:17:28;;;;;;;9.55;2.85;;;;;;;17.11;42.84;101817.75;5030264;28;20069;-68
2022/08/11 03:20:06;;;;;;;7.97;2.60;;;;;;;17.09;42.89;101817.94;5034477;28;20531;-68
2022/08/11 03:22:48;;;;;;;6.53;2.85;;;;;;;17.07;42.92;101819.97;5034113;28;20121;-68
2022/08/11 03:25:30;;;;;;;8.18;2.67;;;;;;;17.02;42.95;101819.66;5023027;28;21145;-68
2022/08/11 03:28:09;;;;;;;;;;;;;;;17.05;42.99;101822.00;5031364;28;20080;-68
2022/08/11 03:30:49;;;;;;;6.78;2.50;;;;;;;16.98;43.40;101815.59;5030716;28;19956;-68
2022/08/11 03:36:15;;;;;;;10.02;2.13;;;;;;;17.02;43.09;101826.94;5030648;28;20076;-68
2022/08/11 03:39:04;;;;;;;6.10;2.50;;;;;;;16.99;43.27;101822.72;5032065;28;20095;-68
2022/08/11 03:41:43;;;;;;;7.70;2.67;;;;;;;16.95;43.53;101821.38;5021965;28;20045;-68
2022/08/11 03:44:59;;;;;;;4.50;2.80;;;;;;;16.83;43.62;101828.22;5041762;28;20037;-68
2022/08/11 03:47:47;;;;;;;5.68;2.35;;;;;;;16.86;43.77;101823.28;5029606;28;20073;-68
2022/08/11 03:50:52;;;;;;;33.17;2.97;;;;;;;16.89;43.86;101816.66;5030952;28;20045;-68
2022/08/11 03:53:38;;;;;;;12.13;2.60;;;;;;;16.82;44.02;101819.25;5031607;28;20060;-68
2022/08/11 03:56:37;;;;;;;7.97;2.30;;;;;;;16.96;43.66;101827.66;5025611;28;20543;-69
2022/08/11 03:59:37;;;;;;;5.72;2.65;;;;;;;16.91;43.65;101825.47;5031407;28;20130;-69
2022/08/11 04:02:48;;;;;;;9.88;2.95;;;;;;;16.95;43.41;101825.94;5029703;28;20485;-69
2022/08/11 04:06:01;;;;;;;14.87;3.47;;;;;;;16.89;43.67;101820.22;5014850;28;20116;-69
2022/08/11 04:08:49;;;;;;;9.80;3.35;;;;;;;16.87;43.75;101822.25;5028810;28;20401;-68
2022/08/11 04:11:50;;;;;;;13.75;3.72;;;;;;;16.81;44.01;101824.81;5034992;28;20195;-68
2022/08/11 04:17:57;;;;;;;14.10;2.90;;;;;;;16.85;43.93;101826.16;5031043;28;20045;-67
2022/08/11 04:20:49;;;;;;;10.98;3.47;;;;;;;16.81;44.03;101822.09;5030554;28;20088;-68
2022/08/11 04:23:19;;;;;;;12.95;2.88;;;;;;;16.71;44.38;101822.28;5030138;28;20128;-69
2022/08/11 04:26:21;;;;;;;9.40;3.08;;;;;;;16.66;44.43;101822.00;5030401;28;20045;-67
2022/08/11 04:29:04;;;;;;;10.57;3.05;;;;;;;16.59;44.89;101829.13;5030223;28;20141;-69
2022/08/11 04:32:15;;;;;;;5.45;2.60;;;;;;;16.69;44.41;101826.22;5030153;28;20128;-69
2022/08/11 04:35:07;;;;;;;7.65;2.90;;;;;;;16.71;44.69;101830.44;5030201;28;20137;-70
2022/08/11 04:38:10;;;;;;;13.68;2.80;;;;;;;16.74;44.66;101831.94;5029827;28;20128;-68
2022/08/11 04:40:58;;;;;;;14.52;3.03;;;;;;;16.77;44.40;101834.31;5029702;28;20449;-68
2022/08/11 04:44:03;;;;;;;9.57;2.90;;;;;;;16.77;44.61;101834.31;5031130;28;20049;-68
2022/08/11 04:46:41;;;;;;;9.35;3.08;;;;;;;16.86;44.58;101838.69;5029716;28;20126;-69
2022/08/11 05:02:49;;;;;;;12.93;3.08;;;;;;;17.28;44.01;101838.34;5030600;28;20088;-70
2022/08/11 05:05:40;;;;;;;14.52;3.25;;;;;;;17.35;43.63;101839.34;5029873;28;20080;-68
2022/08/11 05:09:16;;;;;;;14.55;3.33;;;;;;;17.45;43.59;101833.72;5026761;28;20129;-70
2022/08/11 05:11:57;;;;;;;13.35;3.80;;;;;;;17.51;43.48;101833.00;4989252;28;20133;-70
2022/08/11 05:34:55;;;;;;;11.95;3.75;;;;;;;17.92;42.50;101848.13;4991469;28;20070;-70
2022/08/11 05:37:32;;;;;;;15.52;3.97;;;;;;;17.78;42.66;101844.34;4990507;28;20125;-70
2022/08/11 05:57:08;;;;;;;17.92;4.13;;;;;;;18.06;42.21;101863.63;5032499;28;20124;-69
2022/08/11 05:59:35;;;;;;;12.98;3.92;;;;;;;18.18;42.13;101864.09;5032996;28;20481;-69
2022/08/11 06:02:06;;;;;;;5.93;3.70;;;;;;;18.27;41.92;101865.69;5030499;28;20125;-69
2022/08/11 06:04:33;;;;;;;14.82;4.47;;;;;;;18.22;42.14;101862.69;5033051;28;20088;-69
2022/08/11 06:07:08;;;;;;;21.15;4.30;;;;;;;18.34;41.96;101863.94;5032992;28;20124;-69
2022/08/11 06:09:37;;;;;;;21.40;3.80;;;;;;;18.40;41.66;101873.22;5032715;28;20045;-69
2022/08/11 06:12:07;;;;;;;18.85;3.60;;;;;;;18.25;42.29;101867.75;5032294;28;20508;-69
2022/08/11 06:14:42;;;;;;;12.02;3.65;;;;;;;18.53;41.66;101862.56;5032175;28;20134;-69
2022/08/11 06:17:09;;;;;;;15.57;4.50;;;;;;;18.63;41.45;101868.59;5033235;28;20073;-70
2022/08/11 06:19:41;;;;;;;16.25;4.13;;;;;;;18.58;41.56;101881.88;5032945;28;20045;-70
2022/08/11 06:22:11;;;;;;;13.63;3.78;;;;;;;18.60;41.75;101881.69;5031595;28;20065;-70
2022/08/11 06:24:49;;;;;;;15.23;3.85;;;;;;;18.72;41.15;101872.91;5032938;28;20041;-70
2022/08/11 06:27:21;;;;;;;15.40;4.50;;;;;;;18.81;41.20;101876.38;5030166;28;20148;-70
2022/08/11 06:29:51;;;;;;;;;;;;;;;18.86;41.22;101881.25;5031681;28;20069;-70
2022/08/11 06:32:42;;;;;;;14.32;3.60;;;;;;;19.00;41.04;101881.28;5032296;28;20021;-70
2022/08/11 06:35:21;;;;;;;16.95;4.25;;;;;;;18.87;41.11;101882.94;5032474;28;20136;-70
2022/08/11 06:38:03;;;;;;;19.63;4.10;;;;;;;19.04;40.81;101878.22;5031390;28;20129;-69
2022/08/11 06:40:32;;;;;;;;;;;;;;;19.15;40.59;101888.59;5032583;28;20504;-68
2022/08/11 06:43:18;;;;;;;16.95;4.00;;;;;;;19.30;40.21;101888.56;5032283;28;19921;-69
2022/08/11 06:46:04;;;;;;;10.57;4.15;;;;;;;19.37;39.96;101879.47;5030981;28;20164;-68
2022/08/11 06:48:32;;;;;;;16.67;4.15;;;;;;;19.75;39.21;101881.19;5031141;28;20128;-68
2022/08/11 06:51:13;;;;;;;14.52;4.53;;;;;;;19.43;39.93;101872.41;5032224;28;20072;-68
2022/08/11 06:53:52;;;;;;;22.80;4.80;;;;;;;19.73;39.06;101878.66;5031442;28;20088;-69
2022/08/11 07:02:36;;;;;;;15.68;4.28;;;;;;;20.71;37.24;101866.13;5032409;28;20128;-69
2022/08/11 07:05:21;;;;;;;14.48;3.75;;;;;;;20.60;37.38;101872.97;5023160;28;20076;-68
2022/08/11 07:16:52;;;;;;;20.85;4.72;;;;;;;21.77;35.14;101861.13;5032826;28;20132;-71
2022/08/11 07:30:48;;;;;;;14.90;4.13;;;;;;;22.62;33.50;101858.66;5031295;28;20065;-70
2022/08/11 07:33:43;;;;;;;9.30;3.85;;;;;;;22.72;33.45;101856.34;5030396;28;20053;-70
2022/08/11 07:36:30;;;;;;;13.77;4.00;;;;;;;22.97;32.53;101861.94;5030682;28;20049;-69
2022/08/11 07:38:58;;;;;;;11.50;3.65;;;;;;;24.47;30.56;101855.19;5031180;28;20072;-70
2022/08/11 07:41:27;;;;;;;12.63;4.18;;;;;;;25.02;29.66;101850.59;5031460;28;20081;-69
2022/08/11 07:44:08;;;;;;;19.80;3.65;;;;;;;25.34;29.40;101858.69;5032241;28;20519;-69
2022/08/11 07:52:29;;;;;;;10.65;3.42;;;;;;;25.86;28.36;101848.03;5032296;28;20128;-70
2022/08/11 07:54:59;;;;;;;15.25;3.47;;;;;;;25.99;28.36;101855.19;5030968;28;20093;-70
2022/08/11 08:17:47;;;;;;;8.32;2.80;;;;;;;27.28;25.81;101852.41;5031238;28;20064;-70
2022/08/11 08:20:46;;;;;;;9.30;2.97;;;;;;;26.95;26.59;101842.09;5031533;28;20125;-70
2022/08/11 08:23:13;;;;;;;6.90;3.00;;;;;;;26.82;26.51;101843.19;5031499;28;20081;-70
2022/08/11 08:25:42;;;;;;;11.98;3.10;;;;;;;26.64;26.99;101846.88;5030935;28;20132;-70
2022/08/11 08:28:13;;;;;;;13.07;3.38;;;;;;;27.00;26.94;101839.41;5030135;28;20141;-70
2022/08/11 08:30:51;;;;;;;7.32;3.00;;;;;;;27.57;25.41;101835.91;5029870;28;20045;-69
2022/08/11 08:33:23;;;;;;;9.75;3.03;;;;;;;26.98;26.18;101836.09;5029528;28;20073;-70
2022/08/11 08:36:10;;;;;;;11.45;3.22;;;;;;;26.80;26.43;101842.59;5031529;28;20448;-69
2022/08/11 08:38:46;;;;;;;13.85;2.60;;;;;;;27.56;25.51;101840.56;5030695;28;20041;-70
2022/08/11 08:41:18;;;;;;;9.82;2.50;;;;;;;27.70;25.18;101836.41;5030935;28;20140;-69
2022/08/11 08:43:49;;;;;;;13.52;3.25;;;;;;;27.55;25.40;101832.53;5031817;28;20064;-69
2022/08/11 08:46:18;;;;;;;;;;;;;;;27.01;25.76;101838.38;5026894;28;20136;-69
2022/08/11 08:48:46;;;;;;;12.70;2.95;;;;;;;28.00;24.80;101828.94;5030373;28;19960;-70
2022/08/11 08:54:21;;;;;;;9.60;2.90;;;;;;;28.11;24.64;101836.28;5030837;28;20049;-69
2022/08/11 08:56:53;;;;;;;17.88;3.53;;;;;;;28.13;23.90;101834.13;5030290;28;20091;-69
2022/08/11 08:59:24;;;;;;;6.63;2.45;;;;;;;27.66;24.64;101823.34;5030829;28;20425;-69
2022/08/11 09:01:58;;;;;;;5.70;2.30;;;;;;;28.18;23.40;101831.47;5033312;28;20069;-70
2022/08/11 09:04:26;;;;;;;10.00;2.70;;;;;;;27.46;25.05;101827.44;5033169;28;20056;-68
2022/08/11 09:06:55;;;;;;;7.88;2.67;;;;;;;27.14;25.76;101827.06;5033852;28;20466;-69
2022/08/11 09:09:22;;;;;;;11.35;3.22;;;;;;;27.96;24.05;101823.09;5034025;28;20382;-70
2022/08/11 09:11:50;;;;;;;9.32;2.78;;;;;;;27.82;24.77;101819.78;5032765;28;20507;-69
2022/08/11 09:14:19;;;;;;;11.75;4.40;;;;;;;27.76;25.03;101818.03;5029043;28;20455;-70
2022/08/11 09:16:47;;;;;;;21.92;5.13;;;;;;;27.27;25.43;101818.50;5033813;28;20136;-71
2022/08/11 09:19:16;;;;;;;15.10;3.63;;;;;;;27.99;24.68;101813.50;5032864;28;20144;-70
2022/08/11 09:26:58;;;;;;;15.70;3.30;;;;;;;27.74;24.43;101817.47;5033877;28;20074;-70
2022/08/11 09:27:23;;;;;;;20.60;3.42;;;;;;;28.25;23.46;101821.09;5033618;28;20132;-70
2022/08/11 09:29:51;;;;;;;8.63;2.97;;;;;;;27.68;23.89;101821.19;5033637;28;20421;-70
2022/08/11 09:32:20;;;;;;;18.20;4.15;;;;;;;27.01;25.15;101816.34;5032740;28;20081;-69
2022/08/11 09:34:50;;;;;;;10.82;2.50;;;;;;;28.35;23.08;101820.38;5033209;28;20137;-69
2022/08/11 09:40:29;;;;;;;8.25;2.60;;;;;;;27.53;23.98;101808.00;5032120;28;20124;-69
2022/08/11 09:45:55;;;;;;;12.15;2.20;;;;;;;27.82;22.90;101806.00;5033780;28;20077;-70
2022/08/11 09:48:26;;;;;;;4.68;2.10;;;;;;;27.91;22.63;101804.53;5033939;28;20472;-68
2022/08/11 09:50:57;;;;;;;6.80;2.28;;;;;;;27.51;23.74;101801.88;5034035;28;20124;-68
2022/08/11 09:53:26;;;;;;;8.20;2.10;;;;;;;27.33;23.65;101797.41;5034702;28;20057;-69
2022/08/11 09:58:56;;;;;;;8.95;2.13;;;;;;;27.44;23.16;101795.69;5032624;28;20045;-69
2022/08/11 10:01:28;;;;;;;8.43;2.25;;;;;;;27.02;23.20;101798.72;5033619;28;20069;-69
2022/08/11 10:03:59;;;;;;;6.30;2.50;;;;;;;27.44;23.28;101787.41;5034576;28;20045;-69
2022/08/11 10:09:21;;;;;;;4.68;2.03;;;;;;;26.77;24.38;101782.53;5033436;28;20041;-68
2022/08/11 10:11:55;;;;;;;4.25;2.05;;;;;;;27.91;22.55;101785.25;5033261;28;20473;-70
2022/08/11 10:17:13;;;;;;;5.65;2.10;;;;;;;26.08;25.36;101776.78;5033506;28;20053;-69
2022/08/11 10:19:42;;;;;;;8.23;2.08;;;;;;;28.50;22.54;101772.91;5034428;28;20449;-69
2022/08/11 10:27:52;;;;;;;7.25;2.60;;;;;;;29.75;20.46;101768.22;5033282;28;20044;-68
2022/08/11 10:36:29;;;;;;;11.98;1.83;;;;;;;28.68;22.13;101759.59;5031612;28;20046;-69
2022/08/11 10:38:57;;;;;;;4.72;1.98;;;;;;;28.37;22.12;101757.50;5027585;28;20383;-69
2022/08/11 10:44:36;;;;;;;3.30;1.88;;;;;;;28.43;21.50;101754.59;5032941;28;20056;-69
2022/08/11 10:51:11;;;;;;;5.47;2.03;;;;;;;26.83;24.28;101748.50;5032746;28;20041;-69
2022/08/11 11:00:57;;;;;;;6.70;2.88;;;;;;;27.58;23.15;101739.16;5032429;28;20068;-69
2022/08/11 11:03:26;;;;;;;7.88;2.10;;;;;;;26.96;24.27;101731.69;5032465;28;20068;-69
2022/08/11 11:06:00;;;;;;;10.57;1.92;;;;;;;26.96;22.91;101733.59;5032831;28;20076;-69
2022/08/11 11:08:54;;;;;;;8.60;2.10;;;;;;;27.25;22.58;101734.44;5032597;28;20132;-69
2022/08/11 11:20:05;;;;;;;6.03;1.95;;;;;;;27.49;22.59;101724.97;5032697;28;20072;-69
2022/08/11 11:22:38;;;;;;;9.68;2.28;;;;;;;27.36;22.66;101725.28;5032596;28;20129;-69
2022/08/11 11:25:16;;;;;;;13.93;2.58;;;;;;;26.71;23.59;101731.16;5028051;28;20057;-69
2022/08/11 11:28:03;;;;;;;5.95;2.17;;;;;;;26.79;23.64;101711.50;5033338;28;20083;-69
2022/08/11 11:31:11;;;;;;;8.70;2.60;;;;;;;27.29;22.62;101719.06;5030865;28;20045;-69
2022/08/11 11:33:59;;;;;;;4.13;2.10;;;;;;;27.01;22.67;101711.69;5022444;28;20056;-69
2022/08/11 11:36:52;;;;;;;7.63;2.58;;;;;;;27.54;23.14;101706.84;5033143;28;20052;-69
2022/08/11 11:39:22;;;;;;;10.15;2.35;;;;;;;28.31;21.71;101704.16;5033069;28;20049;-69
2022/08/11 11:41:52;;;;;;;11.98;2.53;;;;;;;28.46;21.54;101699.94;5031285;28;20060;-68
2022/08/11 11:44:21;;;;;;;7.80;2.55;;;;;;;29.25;20.51;101711.34;5031860;28;20072;-68
2022/08/11 11:46:49;;;;;;;8.43;2.28;;;;;;;29.65;19.95;101703.69;5025829;28;20072;-69
2022/08/11 11:49:19;;;;;;;7.80;2.17;;;;;;;28.52;21.63;101702.50;5030773;28;20056;-69
2022/08/11 11:51:52;;;;;;;7.97;2.22;;;;;;;28.91;21.34;101694.97;5031206;28;20124;-69
2022/08/11 11:54:25;;;;;;;6.80;2.58;;;;;;;29.31;20.65;101695.66;5031240;28;20076;-70
2022/08/11 11:56:53;;;;;;;6.43;2.30;;;;;;;28.91;20.83;101683.91;5031421;28;20045;-69
2022/08/11 12:02:08;;;;;;;8.85;2.30;;;;;;;27.58;23.20;101685.97;5028247;28;20069;-69
2022/08/11 12:04:41;;;;;;;6.38;2.10;;;;;;;27.31;23.15;101694.84;5031452;28;20481;-70
2022/08/11 12:09:56;;;;;;;11.07;2.70;;;;;;;26.38;24.50;101685.03;5030909;28;20621;-70
2022/08/11 12:15:09;;;;;;;8.13;2.35;;;;;;;25.72;25.53;101681.63;5029976;28;20127;-70
2022/08/11 12:17:36;;;;;;;5.05;2.30;;;;;;;25.99;24.54;101674.56;5031378;28;20457;-69
2022/08/11 12:20:06;;;;;;;13.82;2.63;;;;;;;25.91;25.74;101671.34;5027941;28;20127;-69
2022/08/11 12:28:49;;;;;;;5.20;2.50;;;;;;;25.41;25.50;101675.38;5028595;28;20413;-69
2022/08/11 12:31:16;;;;;;;6.63;2.10;;;;;;;25.56;25.29;101662.00;5022662;28;20060;-69
2022/08/11 12:33:43;;;;;;;6.80;2.33;;;;;;;25.51;25.87;101661.88;5031967;28;20545;-69
2022/08/11 12:36:14;;;;;;;12.15;2.33;;;;;;;25.63;25.75;101661.09;5032840;28;20057;-69
2022/08/11 12:38:43;;;;;;;;;;;;;;;24.98;27.04;101653.63;5035424;28;20048;-69
2022/08/11 12:46:58;;;;;;;8.55;2.28;;;;;;;25.69;25.41;101647.22;5033115;28;20529;-69
2022/08/11 12:52:22;;;;;;;7.45;2.80;;;;;;;25.66;25.66;101639.47;5034149;28;20073;-69
2022/08/11 12:54:56;;;;;;;13.43;2.58;;;;;;;25.95;24.52;101647.78;5034621;28;20057;-69
2022/08/11 12:58:20;;;;;;;6.63;2.67;;;;;;;25.57;25.17;101633.44;5033756;28;20057;-69
2022/08/11 13:05:58;;;;;;;11.02;2.10;;;;;;;26.14;24.03;101629.25;5033628;28;20049;-69
2022/08/11 13:08:28;;;;;;;7.03;2.17;;;;;;;25.82;24.53;101622.25;5034839;28;20050;-69
2022/08/11 13:13:45;;;;;;;6.72;2.08;;;;;;;25.88;23.89;101617.69;5028078;28;20088;-68
2022/08/11 13:16:28;;;;;;;6.63;2.35;;;;;;;25.72;24.27;101621.16;5033843;28;20092;-69
2022/08/11 13:18:57;;;;;;;14.45;5.95;;;;;;;25.49;24.56;101617.31;5032932;28;20041;-69
2022/08/11 13:21:25;;;;;;;5.57;2.20;;;;;;;25.45;24.08;101618.03;5033908;28;20053;-69
2022/08/11 13:23:55;;;;;;;6.18;2.30;;;;;;;25.77;23.61;101615.78;5032672;28;20068;-69
2022/08/11 13:26:30;;;;;;;8.82;3.53;;;;;;;25.52;24.18;101611.34;5033129;28;20107;-69
2022/08/11 13:29:23;;;;;;;13.90;3.65;;;;;;;25.40;23.89;101618.75;5031044;28;20049;-69
2022/08/11 13:31:51;;;;;;;10.52;2.40;;;;;;;25.70;23.36;101615.91;5031927;28;20045;-69
2022/08/11 13:34:20;;;;;;;9.80;3.33;;;;;;;25.78;23.03;101607.28;5031724;28;20060;-69
2022/08/11 13:36:50;;;;;;;15.50;5.70;;;;;;;25.33;25.06;101602.38;5033797;28;20481;-69
2022/08/11 13:39:19;;;;;;;8.02;3.25;;;;;;;25.44;23.90;101611.69;5033831;28;20477;-69
2022/08/11 13:41:47;;;;;;;11.68;3.15;;;;;;;25.54;23.67;101598.19;5033669;28;20091;-69
2022/08/11 13:44:16;;;;;;;8.80;2.50;;;;;;;25.71;22.87;101598.34;5029899;28;20141;-69
2022/08/11 13:46:50;;;;;;;8.02;2.83;;;;;;;25.91;23.47;101597.97;5031675;28;20119;-69
2022/08/11 13:49:20;;;;;;;5.43;2.20;;;;;;;25.65;23.53;101587.47;5033555;28;20057;-69
2022/08/11 13:51:48;;;;;;;10.40;2.47;;;;;;;25.41;23.45;101589.34;5032755;28;20072;-69
2022/08/11 13:54:18;;;;;;;6.43;2.50;;;;;;;25.55;23.42;101588.91;5034389;28;20482;-69
2022/08/11 13:56:47;;;;;;;9.50;2.10;;;;;;;25.52;23.58;101586.63;5034226;28;20053;-69
2022/08/11 13:59:19;;;;;;;19.35;2.15;;;;;;;26.13;22.14;101586.31;5033325;28;20069;-68
2022/08/11 14:01:56;;;;;;;14.00;2.63;;;;;;;25.92;22.82;101583.13;5023933;28;20056;-69
2022/08/11 14:04:56;;;;;;;9.35;2.38;;;;;;;25.52;23.50;101581.13;5033330;28;20046;-69
2022/08/11 14:07:26;;;;;;;7.85;2.28;;;;;;;25.68;23.19;101576.84;5032796;28;20053;-69
2022/08/11 14:09:57;;;;;;;6.60;2.03;;;;;;;25.91;23.52;101575.97;5032256;28;20132;-69
2022/08/11 14:15:24;;;;;;;3.15;2.08;;;;;;;26.14;23.39;101575.09;5032778;28;20076;-69
2022/08/11 14:17:55;;;;;;;10.07;2.40;;;;;;;25.81;22.90;101573.00;5032907;28;20041;-69
2022/08/11 14:20:23;;;;;;;17.30;1.90;;;;;;;25.75;23.27;101577.53;5032750;28;20104;-69
2022/08/11 14:23:09;;;;;;;7.20;1.90;;;;;;;25.76;22.89;101570.97;5033351;28;20512;-69
2022/08/11 14:26:22;;;;;;;11.05;2.08;;;;;;;25.71;23.63;101568.09;5032750;28;20053;-69
2022/08/11 14:28:31;;;;;;;8.30;1.80;;;;;;;25.52;23.85;101572.88;5028407;28;20457;-68
2022/08/11 14:31:07;;;;;;;7.80;1.85;;;;;;;25.95;22.03;101557.91;5033208;28;20048;-69
2022/08/11 14:33:35;;;;;;;7.32;1.67;;;;;;;25.83;22.75;101562.59;5032550;28;20390;-69
2022/08/11 14:36:23;;;;;;;5.05;1.80;;;;;;;25.85;22.90;101557.69;5031992;28;20049;-68
2022/08/11 14:38:54;;;;;;;5.20;1.35;;;;;;;25.57;21.85;101562.00;5033402;28;20446;-68
2022/08/11 14:47:17;;;;;;;10.10;1.77;;;;;;;26.06;22.06;101556.19;5031125;28;20480;-69
2022/08/11 14:49:53;;;;;;;5.78;1.75;;;;;;;25.78;21.73;101548.75;5027863;28;20536;-69
2022/08/11 14:52:42;;;;;;;11.30;2.00;;;;;;;26.01;22.04;101547.84;5031930;28;20099;-69
2022/08/11 14:57:55;;;;;;;5.85;1.52;;;;;;;25.75;21.75;101550.06;5029362;28;19925;-69
2022/08/11 15:00:23;;;;;;;8.68;1.60;;;;;;;25.78;21.42;101546.81;5031156;28;20049;-69
2022/08/11 15:03:08;;;;;;;5.40;1.73;;;;;;;25.37;23.58;101539.56;5031670;28;20064;-69
2022/08/11 15:05:53;;;;;;;6.75;1.60;;;;;;;25.84;21.11;101539.53;5030999;28;20049;-69
2022/08/11 15:14:04;;;;;;;10.60;2.47;;;;;;;26.25;20.44;101530.22;5029663;28;20049;-69
2022/08/11 15:19:20;;;;;;;9.60;2.08;;;;;;;25.77;21.23;101527.84;5032790;28;20166;-70
2022/08/11 15:24:35;;;;;;;3.20;1.70;;;;;;;25.47;21.49;101531.53;5031370;28;20386;-69
2022/08/11 15:38:35;;;;;;;2.50;1.40;;;;;;;25.64;21.47;101509.69;5027587;28;20072;-69
2022/08/11 15:46:46;;;;;;;6.47;1.52;;;;;;;25.68;20.94;101513.63;5011884;28;20065;-69
2022/08/11 15:49:16;;;;;;;5.72;1.67;;;;;;;25.38;22.36;101516.53;5011791;28;20042;-69
2022/08/11 15:52:05;;;;;;;5.88;1.65;;;;;;;25.25;21.61;101508.53;5007547;28;20049;-69
2022/08/11 15:54:33;;;;;;;6.75;1.50;;;;;;;25.41;21.45;101515.19;5030664;28;20216;-68
2022/08/11 15:57:04;;;;;;;4.82;1.77;;;;;;;25.32;22.60;101509.25;5031930;28;20137;-69
2022/08/11 16:05:12;;;;;;;9.73;1.23;;;;;;;25.34;21.18;101504.34;5031460;28;20041;-70
2022/08/11 16:08:00;;;;;;;5.63;1.48;;;;;;;25.34;21.35;101507.09;5030451;28;20052;-69
2022/08/11 16:10:30;;;;;;;7.20;1.58;;;;;;;25.65;20.49;101505.03;5029335;28;20454;-70
2022/08/11 16:16:13;;;;;;;8.05;1.30;;;;;;;25.45;21.04;101499.91;5029769;28;20454;-70
2022/08/11 16:18:42;;;;;;;5.57;1.48;;;;;;;25.41;21.95;101501.44;5029479;28;20128;-68
2022/08/11 16:21:14;;;;;;;3.05;1.40;;;;;;;25.40;21.07;101500.63;5029881;28;20059;-69
2022/08/11 16:24:03;;;;;;;5.90;1.40;;;;;;;25.44;20.82;101499.06;5028736;28;20041;-69
2022/08/11 16:26:32;;;;;;;4.85;1.50;;;;;;;25.26;20.32;101491.78;5029549;28;20041;-68
2022/08/11 16:29:21;;;;;;;5.85;1.45;;;;;;;25.38;20.38;101497.31;5032170;28;20041;-68
2022/08/11 16:32:15;;;;;;;4.20;1.52;;;;;;;25.36;19.83;101496.69;5032040;28;20099;-70
2022/08/11 16:40:11;;;;;;;4.68;1.50;;;;;;;25.18;20.56;101494.09;5030870;28;20046;-70
2022/08/11 16:48:27;;;;;;;2.17;1.40;;;;;;;25.53;19.19;101497.63;5030416;28;20446;-69
2022/08/11 16:51:04;;;;;;;4.82;1.35;;;;;;;25.41;19.94;101498.72;5030123;28;20054;-69
2022/08/11 16:53:31;;;;;;;5.22;1.38;;;;;;;25.44;18.98;101493.56;5030635;28;20045;-70
2022/08/11 16:56:22;;;;;;;7.55;1.38;;;;;;;25.34;19.58;101498.88;5026732;28;20042;-69